sensor_id;sensor_type;location;lat;lon;timestamp;pressure;altitude;pressure_sealevel;temperature;humidity
73383;BME280;61600;48.126;11.542;2023-05-03T00:00:39;96315.34;;;11.23;72.79
73383;BME280;61600;48.126;11.542;2023-05-03T00:03:05;96311.25;;;11.16;73.51
73383;BME280;61600;48.126;11.542;2023-05-03T00:05:31;96307.44;;;11.27;72.94
73383;BME280;61600;48.126;11.542;2023-05-03T00:07:57;96309.34;;;11.11;72.47
73383;BME280;61600;48.126;11.542;2023-05-03T00:10:24;96302.28;;;11.20;72.54
73383;BME280;61600;48.126;11.542;2023-05-03T00:12:50;96312.59;;;11.23;72.39
73383;BME280;61600;48.126;11.542;2023-05-03T00:15:15;96305.28;;;11.29;72.25
73383;BME280;61600;48.126;11.542;2023-05-03T00:17:41;96301.19;;;11.16;72.83
73383;BME280;61600;48.126;11.542;2023-05-03T00:20:08;96302.28;;;11.10;72.22
73383;BME280;61600;48.126;11.542;2023-05-03T00:22:34;96297.66;;;10.90;72.35
73383;BME280;61600;48.126;11.542;2023-05-03T00:25:00;96299.56;;;10.90;72.81
73383;BME280;61600;48.126;11.542;2023-05-03T00:27:25;96294.94;;;10.90;73.27
73383;BME280;61600;48.126;11.542;2023-05-03T00:29:52;96304.16;;;10.94;73.05
73383;BME280;61600;48.126;11.542;2023-05-03T00:32:19;96300.38;;;11.11;72.48
73383;BME280;61600;48.126;11.542;2023-05-03T00:34:45;96299.00;;;11.23;72.06
73383;BME280;61600;48.126;11.542;2023-05-03T00:37:31;96300.09;;;11.07;71.08
73383;BME280;61600;48.126;11.542;2023-05-03T00:39:57;96293.00;;;11.06;72.42
73383;BME280;61600;48.126;11.542;2023-05-03T00:42:22;96301.72;;;10.93;72.42
73383;BME280;61600;48.126;11.542;2023-05-03T00:44:48;96294.66;;;10.87;72.22
73383;BME280;61600;48.126;11.542;2023-05-03T00:47:15;96294.09;;;10.85;72.02
73383;BME280;61600;48.126;11.542;2023-05-03T00:49:41;96288.38;;;10.96;72.04
73383;BME280;61600;48.126;11.542;2023-05-03T00:52:08;96283.22;;;11.10;71.42
73383;BME280;61600;48.126;11.542;2023-05-03T00:54:34;96287.56;;;11.06;71.50
73383;BME280;61600;48.126;11.542;2023-05-03T00:57:00;96288.41;;;11.12;70.98
73383;BME280;61600;48.126;11.542;2023-05-03T00:59:27;96285.66;;;10.96;71.80
73383;BME280;61600;48.126;11.542;2023-05-03T01:01:53;96280.47;;;10.85;72.13
73383;BME280;61600;48.126;11.542;2023-05-03T01:04:19;96285.38;;;10.88;72.20
73383;BME280;61600;48.126;11.542;2023-05-03T01:09:34;96291.09;;;10.86;71.68
73383;BME280;61600;48.126;11.542;2023-05-03T01:12:19;96290.56;;;11.10;71.01
73383;BME280;61600;48.126;11.542;2023-05-03T01:15:07;96292.72;;;11.13;70.93
73383;BME280;61600;48.126;11.542;2023-05-03T01:17:38;96291.38;;;11.00;71.03
73383;BME280;61600;48.126;11.542;2023-05-03T01:20:07;96284.31;;;10.99;70.79
73383;BME280;61600;48.126;11.542;2023-05-03T01:25:23;96283.22;;;11.10;70.83
73383;BME280;61600;48.126;11.542;2023-05-03T01:27:48;96278.31;;;11.12;71.05
73383;BME280;61600;48.126;11.542;2023-05-03T01:30:14;96285.66;;;11.07;71.90
73383;BME280;61600;48.126;11.542;2023-05-03T01:33:09;96287.59;;;11.11;70.94
73383;BME280;61600;48.126;11.542;2023-05-03T01:35:50;96282.38;;;10.94;70.59
73383;BME280;61600;48.126;11.542;2023-05-03T01:38:17;96290.03;;;10.97;70.52
73383;BME280;61600;48.126;11.542;2023-05-03T01:40:55;96288.09;;;10.73;70.88
73383;BME280;61600;48.126;11.542;2023-05-03T01:43:23;96290.00;;;10.62;71.34
73383;BME280;61600;48.126;11.542;2023-05-03T01:45:49;96284.56;;;10.77;71.33
73383;BME280;61600;48.126;11.542;2023-05-03T01:48:16;96289.75;;;10.79;71.32
73383;BME280;61600;48.126;11.542;2023-05-03T01:50:43;96293.00;;;10.86;71.53
73383;BME280;61600;48.126;11.542;2023-05-03T01:53:09;96285.66;;;10.96;70.92
73383;BME280;61600;48.126;11.542;2023-05-03T01:55:34;96284.59;;;10.97;70.66
73383;BME280;61600;48.126;11.542;2023-05-03T01:58:00;96286.44;;;10.67;69.40
73383;BME280;61600;48.126;11.542;2023-05-03T02:00:26;96292.72;;;10.67;70.84
73383;BME280;61600;48.126;11.542;2023-05-03T02:02:52;96281.56;;;10.89;70.68
73383;BME280;61600;48.126;11.542;2023-05-03T02:05:18;96292.72;;;11.13;70.64
73383;BME280;61600;48.126;11.542;2023-05-03T02:07:44;96287.56;;;11.21;69.66
73383;BME280;61600;48.126;11.542;2023-05-03T02:10:09;96288.09;;;11.13;69.59
73383;BME280;61600;48.126;11.542;2023-05-03T02:12:42;96290.00;;;11.13;69.66
73383;BME280;61600;48.126;11.542;2023-05-03T02:15:09;96288.91;;;11.09;69.61
73383;BME280;61600;48.126;11.542;2023-05-03T02:17:36;96287.56;;;11.26;67.36
73383;BME280;61600;48.126;11.542;2023-05-03T02:20:03;96293.56;;;11.23;69.01
73383;BME280;61600;48.126;11.542;2023-05-03T02:22:34;96292.22;;;11.26;69.29
73383;BME280;61600;48.126;11.542;2023-05-03T02:24:59;96276.94;;;11.25;69.54
73383;BME280;61600;48.126;11.542;2023-05-03T02:27:25;96282.13;;;11.31;69.31
73383;BME280;61600;48.126;11.542;2023-05-03T02:29:51;96289.19;;;11.42;68.75
73383;BME280;61600;48.126;11.542;2023-05-03T02:32:17;96285.34;;;11.43;68.77
73383;BME280;61600;48.126;11.542;2023-05-03T02:34:47;96279.38;;;11.46;69.21
73383;BME280;61600;48.126;11.542;2023-05-03T02:37:14;96290.81;;;11.48;69.14
73383;BME280;61600;48.126;11.542;2023-05-03T02:39:40;96293.78;;;11.52;69.04
73383;BME280;61600;48.126;11.542;2023-05-03T02:42:06;96297.38;;;11.17;69.14
73383;BME280;61600;48.126;11.542;2023-05-03T02:44:32;96289.75;;;11.29;69.29
73383;BME280;61600;48.126;11.542;2023-05-03T02:46:58;96289.75;;;11.29;69.86
73383;BME280;61600;48.126;11.542;2023-05-03T02:49:23;96293.00;;;11.16;69.72
73383;BME280;61600;48.126;11.542;2023-05-03T02:51:49;96291.13;;;11.22;69.58
73383;BME280;61600;48.126;11.542;2023-05-03T02:54:17;96290.28;;;11.31;69.40
73383;BME280;61600;48.126;11.542;2023-05-03T02:56:43;96282.38;;;11.35;69.03
73383;BME280;61600;48.126;11.542;2023-05-03T02:59:09;96287.56;;;11.21;69.71
73383;BME280;61600;48.126;11.542;2023-05-03T03:01:35;96292.22;;;11.26;69.45
73383;BME280;61600;48.126;11.542;2023-05-03T03:04:00;96293.84;;;11.22;68.86
73383;BME280;61600;48.126;11.542;2023-05-03T03:06:26;96294.66;;;11.22;69.85
73383;BME280;61600;48.126;11.542;2023-05-03T03:08:52;96286.47;;;11.27;69.71
73383;BME280;61600;48.126;11.542;2023-05-03T03:11:18;96295.72;;;11.41;69.36
73383;BME280;61600;48.126;11.542;2023-05-03T03:13:44;96295.19;;;11.19;70.34
73383;BME280;61600;48.126;11.542;2023-05-03T03:16:10;96293.00;;;11.41;69.53
73383;BME280;61600;48.126;11.542;2023-05-03T03:18:37;96289.75;;;11.39;70.10
73383;BME280;61600;48.126;11.542;2023-05-03T03:21:03;96288.66;;;11.35;69.63
73383;BME280;61600;48.126;11.542;2023-05-03T03:23:28;96299.78;;;10.58;72.83
73383;BME280;61600;48.126;11.542;2023-05-03T03:25:55;96294.09;;;11.10;71.64
73383;BME280;61600;48.126;11.542;2023-05-03T03:28:21;96283.75;;;11.32;71.09
73383;BME280;61600;48.126;11.542;2023-05-03T03:30:46;96295.75;;;11.36;70.73
73383;BME280;61600;48.126;11.542;2023-05-03T03:33:12;96296.81;;;11.35;70.78
73383;BME280;61600;48.126;11.542;2023-05-03T03:35:38;96291.91;;;11.42;70.70
73383;BME280;61600;48.126;11.542;2023-05-03T03:38:04;96287.25;;;11.48;70.85
73383;BME280;61600;48.126;11.542;2023-05-03T03:40:33;96302.25;;;11.45;70.86
73383;BME280;61600;48.126;11.542;2023-05-03T03:43:05;96297.91;;;11.39;71.19
73383;BME280;61600;48.126;11.542;2023-05-03T03:45:31;96298.97;;;11.33;71.39
73383;BME280;61600;48.126;11.542;2023-05-03T03:47:57;96289.44;;;11.41;71.52
73383;BME280;61600;48.126;11.542;2023-05-03T03:50:25;96288.34;;;11.52;70.79
73383;BME280;61600;48.126;11.542;2023-05-03T03:52:51;96293.00;;;11.41;71.25
73383;BME280;61600;48.126;11.542;2023-05-03T03:55:17;96296.00;;;11.35;71.22
73383;BME280;61600;48.126;11.542;2023-05-03T03:57:43;96289.69;;;11.54;70.73
73383;BME280;61600;48.126;11.542;2023-05-03T04:00:09;96296.03;;;11.15;70.53
73383;BME280;61600;48.126;11.542;2023-05-03T04:02:35;96300.09;;;11.07;72.44
73383;BME280;61600;48.126;11.542;2023-05-03T04:05:01;96300.09;;;11.02;71.04
73383;BME280;61600;48.126;11.542;2023-05-03T04:07:27;96297.38;;;10.87;72.80
73383;BME280;61600;48.126;11.542;2023-05-03T04:10:12;96302.81;;;10.87;72.85
73383;BME280;61600;48.126;11.542;2023-05-03T04:12:38;96303.63;;;10.92;73.74
73383;BME280;61600;48.126;11.542;2023-05-03T04:15:07;96306.91;;;11.15;72.73
73383;BME280;61600;48.126;11.542;2023-05-03T04:17:33;96308.00;;;11.14;72.70
73383;BME280;61600;48.126;11.542;2023-05-03T04:20:01;96305.81;;;11.16;71.80
73383;BME280;61600;48.126;11.542;2023-05-03T04:22:31;96312.63;;;11.13;71.60
73383;BME280;61600;48.126;11.542;2023-05-03T04:24:57;96302.00;;;11.22;71.44
73383;BME280;61600;48.126;11.542;2023-05-03T04:27:26;96311.53;;;11.29;71.30
73383;BME280;61600;48.126;11.542;2023-05-03T04:29:52;96310.44;;;11.00;69.38
73383;BME280;61600;48.126;11.542;2023-05-03T04:32:23;96311.00;;;11.07;70.86
73383;BME280;61600;48.126;11.542;2023-05-03T04:34:55;96314.78;;;11.26;69.60
73383;BME280;61600;48.126;11.542;2023-05-03T04:37:26;96324.31;;;11.14;71.03
73383;BME280;61600;48.126;11.542;2023-05-03T04:39:52;96320.75;;;10.98;70.97
73383;BME280;61600;48.126;11.542;2023-05-03T04:42:18;96318.84;;;10.88;71.15
73383;BME280;61600;48.126;11.542;2023-05-03T04:44:45;96325.34;;;10.67;71.70
73383;BME280;61600;48.126;11.542;2023-05-03T04:47:11;96326.75;;;10.90;71.29
73383;BME280;61600;48.126;11.542;2023-05-03T04:49:37;96328.97;;;11.18;70.71
73383;BME280;61600;48.126;11.542;2023-05-03T04:52:04;96331.94;;;11.17;70.60
73383;BME280;61600;48.126;11.542;2023-05-03T04:54:30;96333.84;;;11.16;70.82
73383;BME280;61600;48.126;11.542;2023-05-03T04:56:56;96331.41;;;11.25;70.34
73383;BME280;61600;48.126;11.542;2023-05-03T04:59:22;96330.59;;;11.24;70.08
73383;BME280;61600;48.126;11.542;2023-05-03T05:01:47;96334.41;;;11.13;70.81
73383;BME280;61600;48.126;11.542;2023-05-03T05:04:13;96336.59;;;11.21;69.29
73383;BME280;61600;48.126;11.542;2023-05-03T05:06:40;96345.84;;;11.15;69.94
73383;BME280;61600;48.126;11.542;2023-05-03T05:09:06;96346.41;;;11.32;70.66
73383;BME280;61600;48.126;11.542;2023-05-03T05:11:35;96351.00;;;11.27;71.86
73383;BME280;61600;48.126;11.542;2023-05-03T05:14:01;96344.75;;;11.36;71.01
73383;BME280;61600;48.126;11.542;2023-05-03T05:16:26;96340.94;;;11.17;71.79
73383;BME280;61600;48.126;11.542;2023-05-03T05:18:52;96346.09;;;11.14;71.34
73383;BME280;61600;48.126;11.542;2023-05-03T05:21:18;96341.19;;;11.16;71.92
73383;BME280;61600;48.126;11.542;2023-05-03T05:23:43;96346.94;;;11.04;72.90
73383;BME280;61600;48.126;11.542;2023-05-03T05:26:09;96343.09;;;11.05;70.52
73383;BME280;61600;48.126;11.542;2023-05-03T05:28:35;96357.28;;;11.37;71.40
73383;BME280;61600;48.126;11.542;2023-05-03T05:31:07;96369.78;;;11.03;71.53
73383;BME280;61600;48.126;11.542;2023-05-03T05:33:33;96361.63;;;11.43;71.29
73383;BME280;61600;48.126;11.542;2023-05-03T05:36:18;96360.00;;;11.32;71.52
73383;BME280;61600;48.126;11.542;2023-05-03T05:38:46;96357.81;;;11.44;70.97
73383;BME280;61600;48.126;11.542;2023-05-03T05:41:12;96361.91;;;11.47;69.20
73383;BME280;61600;48.126;11.542;2023-05-03T05:43:38;96364.38;;;11.18;70.98
73383;BME280;61600;48.126;11.542;2023-05-03T05:46:03;96369.78;;;11.43;70.67
73383;BME280;61600;48.126;11.542;2023-05-03T05:48:29;96361.63;;;11.38;70.56
73383;BME280;61600;48.126;11.542;2023-05-03T05:50:55;96371.44;;;11.39;71.40
73383;BME280;61600;48.126;11.542;2023-05-03T05:53:21;96371.97;;;11.51;71.29
73383;BME280;61600;48.126;11.542;2023-05-03T05:55:48;96370.34;;;11.40;70.97
73383;BME280;61600;48.126;11.542;2023-05-03T05:58:14;96365.44;;;11.47;71.06
73383;BME280;61600;48.126;11.542;2023-05-03T06:00:40;96369.25;;;11.62;71.31
73383;BME280;61600;48.126;11.542;2023-05-03T06:03:06;96358.91;;;11.74;70.83
73383;BME280;61600;48.126;11.542;2023-05-03T06:05:32;96369.78;;;11.59;70.38
73383;BME280;61600;48.126;11.542;2023-05-03T06:07:58;96367.06;;;11.79;69.93
73383;BME280;61600;48.126;11.542;2023-05-03T06:10:24;96359.44;;;11.96;69.75
73383;BME280;61600;48.126;11.542;2023-05-03T06:12:50;96374.44;;;11.83;70.13
73383;BME280;61600;48.126;11.542;2023-05-03T06:15:16;96367.63;;;11.76;70.33
73383;BME280;61600;48.126;11.542;2023-05-03T06:17:41;96380.72;;;11.74;70.45
73383;BME280;61600;48.126;11.542;2023-05-03T06:20:08;96380.44;;;11.85;71.22
73383;BME280;61600;48.126;11.542;2023-05-03T06:22:37;96374.38;;;12.09;69.96
73383;BME280;61600;48.126;11.542;2023-05-03T06:25:04;96364.75;;;12.36;69.96
73383;BME280;61600;48.126;11.542;2023-05-03T06:27:32;96380.19;;;11.82;70.62
73383;BME280;61600;48.126;11.542;2023-05-03T06:29:58;96380.94;;;12.13;69.62
73383;BME280;61600;48.126;11.542;2023-05-03T06:32:24;96386.41;;;11.82;70.55
73383;BME280;61600;48.126;11.542;2023-05-03T06:34:49;96388.88;;;11.79;71.36
73383;BME280;61600;48.126;11.542;2023-05-03T06:37:16;96382.53;;;12.19;70.81
73383;BME280;61600;48.126;11.542;2023-05-03T06:39:41;96382.50;;;12.29;70.33
73383;BME280;61600;48.126;11.542;2023-05-03T06:42:07;96383.06;;;12.31;70.74
73383;BME280;61600;48.126;11.542;2023-05-03T06:44:33;96386.56;;;12.36;70.56
73383;BME280;61600;48.126;11.542;2023-05-03T06:46:59;96380.78;;;12.53;69.03
73383;BME280;61600;48.126;11.542;2023-05-03T06:49:25;96383.84;;;12.36;69.49
73383;BME280;61600;48.126;11.542;2023-05-03T06:51:51;96385.97;;;12.49;70.12
73383;BME280;61600;48.126;11.542;2023-05-03T06:54:17;96388.00;;;12.19;70.37
73383;BME280;61600;48.126;11.542;2023-05-03T06:56:44;96390.91;;;12.42;69.51
73383;BME280;61600;48.126;11.542;2023-05-03T06:59:11;96388.44;;;12.51;69.50
73383;BME280;61600;48.126;11.542;2023-05-03T07:01:37;96387.66;;;12.35;69.12
73383;BME280;61600;48.126;11.542;2023-05-03T07:04:03;96385.19;;;12.44;68.94
73383;BME280;61600;48.126;11.542;2023-05-03T07:06:29;96389.63;;;12.20;69.64
73383;BME280;61600;48.126;11.542;2023-05-03T07:08:55;96389.06;;;12.28;69.55
73383;BME280;61600;48.126;11.542;2023-05-03T07:11:21;96388.25;;;12.27;69.50
73383;BME280;61600;48.126;11.542;2023-05-03T07:13:53;96384.63;;;12.47;68.10
73383;BME280;61600;48.126;11.542;2023-05-03T07:16:19;96381.72;;;12.18;70.37
73383;BME280;61600;48.126;11.542;2023-05-03T07:18:46;96391.53;;;12.24;70.63
73383;BME280;61600;48.126;11.542;2023-05-03T07:21:13;96391.16;;;12.51;69.68
73383;BME280;61600;48.126;11.542;2023-05-03T07:23:39;96385.97;;;12.55;68.30
73383;BME280;61600;48.126;11.542;2023-05-03T07:26:06;96393.22;;;11.65;71.53
73383;BME280;61600;48.126;11.542;2023-05-03T07:28:32;96386.66;;;12.01;71.27
73383;BME280;61600;48.126;11.542;2023-05-03T07:30:58;96382.00;;;12.12;70.57
73383;BME280;61600;48.126;11.542;2023-05-03T07:33:24;96379.22;;;12.32;68.52
73383;BME280;61600;48.126;11.542;2023-05-03T07:35:50;96382.47;;;12.39;69.46
73383;BME280;61600;48.126;11.542;2023-05-03T07:38:16;96378.38;;;12.41;69.83
73383;BME280;61600;48.126;11.542;2023-05-03T07:40:42;96380.34;;;12.31;69.80
73383;BME280;61600;48.126;11.542;2023-05-03T07:43:08;96379.38;;;12.61;69.74
73383;BME280;61600;48.126;11.542;2023-05-03T07:45:35;96376.13;;;12.53;69.52
73383;BME280;61600;48.126;11.542;2023-05-03T07:48:01;96380.97;;;12.67;68.12
73383;BME280;61600;48.126;11.542;2023-05-03T07:50:29;96375.75;;;12.75;69.56
73383;BME280;61600;48.126;11.542;2023-05-03T07:52:54;96382.00;;;12.86;68.51
73383;BME280;61600;48.126;11.542;2023-05-03T07:55:21;96384.06;;;13.04;66.74
73383;BME280;61600;48.126;11.542;2023-05-03T07:57:47;96379.78;;;13.37;66.58
73383;BME280;61600;48.126;11.542;2023-05-03T08:00:13;96375.59;;;13.44;66.40
73383;BME280;61600;48.126;11.542;2023-05-03T08:02:40;96376.72;;;13.43;67.10
73383;BME280;61600;48.126;11.542;2023-05-03T08:05:06;96378.09;;;13.41;66.15
73383;BME280;61600;48.126;11.542;2023-05-03T08:07:33;96367.81;;;13.62;66.76
73383;BME280;61600;48.126;11.542;2023-05-03T08:09:59;96374.75;;;13.49;67.44
73383;BME280;61600;48.126;11.542;2023-05-03T08:12:25;96371.13;;;13.59;66.65
73383;BME280;61600;48.126;11.542;2023-05-03T08:14:55;96375.56;;;13.83;65.37
73383;BME280;61600;48.126;11.542;2023-05-03T08:17:21;96369.34;;;13.73;65.49
73383;BME280;61600;48.126;11.542;2023-05-03T08:19:48;96362.34;;;13.90;65.33
73383;BME280;61600;48.126;11.542;2023-05-03T08:22:14;96363.84;;;14.30;64.39
73383;BME280;61600;48.126;11.542;2023-05-03T08:24:40;96368.50;;;14.35;63.81
73383;BME280;61600;48.126;11.542;2023-05-03T08:27:07;96371.84;;;14.50;62.32
73383;BME280;61600;48.126;11.542;2023-05-03T08:29:34;96370.09;;;14.36;64.21
73383;BME280;61600;48.126;11.542;2023-05-03T08:32:03;96369.25;;;14.83;63.13
73383;BME280;61600;48.126;11.542;2023-05-03T08:34:29;96371.41;;;14.86;62.01
73383;BME280;61600;48.126;11.542;2023-05-03T08:36:55;96364.66;;;14.78;61.39
73383;BME280;61600;48.126;11.542;2023-05-03T08:39:24;96368.47;;;14.59;61.23
73383;BME280;61600;48.126;11.542;2023-05-03T08:41:54;96365.31;;;14.46;62.65
73383;BME280;61600;48.126;11.542;2023-05-03T08:44:21;96360.44;;;14.86;62.48
73383;BME280;61600;48.126;11.542;2023-05-03T08:46:51;96356.53;;;15.11;62.37
73383;BME280;61600;48.126;11.542;2023-05-03T08:49:17;96358.91;;;15.17;60.59
73383;BME280;61600;48.126;11.542;2023-05-03T08:51:45;96359.94;;;15.40;59.57
73383;BME280;61600;48.126;11.542;2023-05-03T08:54:13;96366.47;;;15.25;61.58
73383;BME280;61600;48.126;11.542;2023-05-03T08:56:42;96358.41;;;15.15;62.26
73383;BME280;61600;48.126;11.542;2023-05-03T08:59:09;96352.84;;;15.58;60.53
73383;BME280;61600;48.126;11.542;2023-05-03T09:01:36;96354.28;;;15.69;59.73
73383;BME280;61600;48.126;11.542;2023-05-03T09:04:02;96362.16;;;15.57;59.97
73383;BME280;61600;48.126;11.542;2023-05-03T09:06:29;96364.44;;;15.68;60.94
73383;BME280;61600;48.126;11.542;2023-05-03T09:08:58;96367.13;;;15.87;58.73
73383;BME280;61600;48.126;11.542;2023-05-03T09:11:26;96368.97;;;15.91;59.08
73383;BME280;61600;48.126;11.542;2023-05-03T09:13:52;96361.28;;;16.07;58.26
73383;BME280;61600;48.126;11.542;2023-05-03T09:16:27;96366.63;;;15.85;59.32
73383;BME280;61600;48.126;11.542;2023-05-03T09:21:23;96375.00;;;15.93;59.62
73383;BME280;61600;48.126;11.542;2023-05-03T09:23:49;96366.66;;;15.98;58.43
73383;BME280;61600;48.126;11.542;2023-05-03T09:26:32;96365.59;;;16.54;57.63
73383;BME280;61600;48.126;11.542;2023-05-03T09:28:59;96366.03;;;16.88;56.78
73383;BME280;61600;48.126;11.542;2023-05-03T09:31:27;96377.22;;;16.65;56.20
73383;BME280;61600;48.126;11.542;2023-05-03T09:33:54;96370.56;;;16.93;57.19
73383;BME280;61600;48.126;11.542;2023-05-03T09:36:21;96373.75;;;16.86;56.18
73383;BME280;61600;48.126;11.542;2023-05-03T09:38:48;96363.13;;;17.07;56.56
73383;BME280;61600;48.126;11.542;2023-05-03T09:41:14;96364.06;;;17.03;56.56
73383;BME280;61600;48.126;11.542;2023-05-03T09:43:47;96365.06;;;17.07;55.74
73383;BME280;61600;48.126;11.542;2023-05-03T09:46:14;96356.25;;;16.69;58.17
73383;BME280;61600;48.126;11.542;2023-05-03T09:48:40;96357.78;;;16.75;57.23
73383;BME280;61600;48.126;11.542;2023-05-03T09:51:07;96355.19;;;17.06;56.75
73383;BME280;61600;48.126;11.542;2023-05-03T09:53:35;96351.63;;;17.05;57.04
73383;BME280;61600;48.126;11.542;2023-05-03T09:56:03;96344.78;;;17.16;56.27
73383;BME280;61600;48.126;11.542;2023-05-03T09:58:29;96351.19;;;17.47;55.33
73383;BME280;61600;48.126;11.542;2023-05-03T10:00:59;96352.41;;;17.55;54.60
73383;BME280;61600;48.126;11.542;2023-05-03T10:03:44;96343.88;;;17.43;54.39
73383;BME280;61600;48.126;11.542;2023-05-03T10:06:31;96343.94;;;17.52;55.33
73383;BME280;61600;48.126;11.542;2023-05-03T10:09:06;96346.19;;;17.27;55.98
73383;BME280;61600;48.126;11.542;2023-05-03T10:11:35;96343.94;;;17.29;55.66
73383;BME280;61600;48.126;11.542;2023-05-03T10:14:03;96342.03;;;17.16;55.07
73383;BME280;61600;48.126;11.542;2023-05-03T10:16:34;96343.06;;;17.20;55.53
73383;BME280;61600;48.126;11.542;2023-05-03T10:19:14;96326.75;;;17.46;55.76
73383;BME280;61600;48.126;11.542;2023-05-03T10:21:53;96340.34;;;17.65;54.65
73383;BME280;61600;48.126;11.542;2023-05-03T10:24:20;96329.97;;;17.62;53.87
73383;BME280;61600;48.126;11.542;2023-05-03T10:26:49;96334.50;;;17.88;54.41
73383;BME280;61600;48.126;11.542;2023-05-03T10:32:03;96334.69;;;17.92;54.06
73383;BME280;61600;48.126;11.542;2023-05-03T10:34:31;96335.66;;;18.18;53.50
73383;BME280;61600;48.126;11.542;2023-05-03T10:37:01;96330.38;;;18.00;54.05
73383;BME280;61600;48.126;11.542;2023-05-03T10:39:28;96328.03;;;18.15;54.46
73383;BME280;61600;48.126;11.542;2023-05-03T10:42:00;96323.50;;;18.19;54.19
73383;BME280;61600;48.126;11.542;2023-05-03T10:44:38;96317.22;;;18.27;52.62
73383;BME280;61600;48.126;11.542;2023-05-03T10:47:15;96330.31;;;18.22;53.79
73383;BME280;61600;48.126;11.542;2023-05-03T10:49:41;96323.06;;;18.26;53.12
73383;BME280;61600;48.126;11.542;2023-05-03T10:55:01;96322.47;;;18.07;54.20
73383;BME280;61600;48.126;11.542;2023-05-03T10:57:30;96318.50;;;18.30;53.71
73383;BME280;61600;48.126;11.542;2023-05-03T10:59:57;96331.31;;;17.95;54.20
73383;BME280;61600;48.126;11.542;2023-05-03T11:02:31;96324.50;;;18.23;54.26
73383;BME280;61600;48.126;11.542;2023-05-03T11:05:01;96318.81;;;18.20;53.98
73383;BME280;61600;48.126;11.542;2023-05-03T11:07:29;96322.31;;;18.42;52.33
73383;BME280;61600;48.126;11.542;2023-05-03T11:09:56;96318.25;;;18.01;52.26
73383;BME280;61600;48.126;11.542;2023-05-03T11:12:22;96315.25;;;17.88;52.65
73383;BME280;61600;48.126;11.542;2023-05-03T11:14:51;96318.16;;;18.23;52.53
73383;BME280;61600;48.126;11.542;2023-05-03T11:17:16;96315.47;;;18.31;52.78
73383;BME280;61600;48.126;11.542;2023-05-03T11:19:43;96319.03;;;18.71;51.96
73383;BME280;61600;48.126;11.542;2023-05-03T11:22:09;96320.56;;;19.03;51.36
73383;BME280;61600;48.126;11.542;2023-05-03T11:24:36;96314.22;;;19.28;49.78
73383;BME280;61600;48.126;11.542;2023-05-03T11:27:02;96308.38;;;19.21;48.90
73383;BME280;61600;48.126;11.542;2023-05-03T11:29:29;96297.50;;;19.85;48.74
73383;BME280;61600;48.126;11.542;2023-05-03T11:31:55;96300.97;;;19.56;49.44
73383;BME280;61600;48.126;11.542;2023-05-03T11:34:21;96298.00;;;19.35;49.98
73383;BME280;61600;48.126;11.542;2023-05-03T11:36:47;96302.75;;;19.43;50.24
73383;BME280;61600;48.126;11.542;2023-05-03T11:39:14;96292.84;;;19.42;49.68
73383;BME280;61600;48.126;11.542;2023-05-03T11:41:40;96295.09;;;19.32;49.75
73383;BME280;61600;48.126;11.542;2023-05-03T11:44:08;96293.81;;;19.21;50.66
73383;BME280;61600;48.126;11.542;2023-05-03T11:46:36;96300.59;;;19.83;49.12
73383;BME280;61600;48.126;11.542;2023-05-03T11:49:03;96293.75;;;19.81;48.26
73383;BME280;61600;48.126;11.542;2023-05-03T11:51:29;96282.50;;;20.03;48.23
73383;BME280;61600;48.126;11.542;2023-05-03T11:53:57;96284.03;;;20.38;48.21
73383;BME280;61600;48.126;11.542;2023-05-03T11:56:23;96288.66;;;20.55;47.50
73383;BME280;61600;48.126;11.542;2023-05-03T11:58:54;96289.72;;;20.71;46.53
73383;BME280;61600;48.126;11.542;2023-05-03T12:01:24;96283.13;;;20.84;45.92
73383;BME280;61600;48.126;11.542;2023-05-03T12:04:00;96276.59;;;20.60;45.98
73383;BME280;61600;48.126;11.542;2023-05-03T12:06:27;96279.13;;;19.98;47.51
73383;BME280;61600;48.126;11.542;2023-05-03T12:08:54;96277.81;;;20.41;47.24
73383;BME280;61600;48.126;11.542;2023-05-03T12:11:21;96270.97;;;20.77;46.98
73383;BME280;61600;48.126;11.542;2023-05-03T12:13:58;96276.50;;;20.48;47.00
73383;BME280;61600;48.126;11.542;2023-05-03T12:16:24;96273.13;;;20.71;45.72
73383;BME280;61600;48.126;11.542;2023-05-03T12:18:55;96264.59;;;20.09;45.70
73383;BME280;61600;48.126;11.542;2023-05-03T12:21:45;96268.53;;;20.00;46.66
73383;BME280;61600;48.126;11.542;2023-05-03T12:24:12;96263.72;;;20.34;45.55
73383;BME280;61600;48.126;11.542;2023-05-03T12:26:43;96262.09;;;20.25;45.95
73383;BME280;61600;48.126;11.542;2023-05-03T12:29:09;96261.69;;;21.02;45.14
73383;BME280;61600;48.126;11.542;2023-05-03T12:31:35;96258.03;;;21.52;43.09
73383;BME280;61600;48.126;11.542;2023-05-03T12:34:01;96261.56;;;21.94;41.35
73383;BME280;61600;48.126;11.542;2023-05-03T12:36:29;96252.09;;;22.07;42.29
73383;BME280;61600;48.126;11.542;2023-05-03T12:39:00;96263.66;;;21.76;42.85
73383;BME280;61600;48.126;11.542;2023-05-03T12:41:36;96251.13;;;22.23;41.82
73383;BME280;61600;48.126;11.542;2023-05-03T12:44:02;96259.59;;;22.06;42.56
73383;BME280;61600;48.126;11.542;2023-05-03T12:46:28;96242.56;;;22.40;40.67
73383;BME280;61600;48.126;11.542;2023-05-03T12:48:54;96236.31;;;22.19;41.15
73383;BME280;61600;48.126;11.542;2023-05-03T12:51:19;96234.13;;;22.37;40.49
73383;BME280;61600;48.126;11.542;2023-05-03T12:53:46;96232.63;;;21.82;40.24
73383;BME280;61600;48.126;11.542;2023-05-03T12:56:12;96227.88;;;22.52;40.07
73383;BME280;61600;48.126;11.542;2023-05-03T12:58:38;96225.44;;;22.14;40.63
73383;BME280;61600;48.126;11.542;2023-05-03T13:01:07;96230.78;;;22.31;40.80
73383;BME280;61600;48.126;11.542;2023-05-03T13:03:32;96225.69;;;22.09;39.90
73383;BME280;61600;48.126;11.542;2023-05-03T13:06:00;96229.81;;;22.03;39.93